Time;durP1;ratioP1;P1;durP2;ratioP2;P2;SDS_P1;SDS_P2;PMS_P1;PMS_P2;Temp;Humidity;BMP_temperature;BMP_pressure;BME280_temperature;BME280_humidity;BME280_pressure;Samples;Min_cycle;Max_cycle;Signal;HPM_P1;HPM_P2
2021/12/11 00:01:46;;;;;;;99.78;40.10;;;2.00;99.90;;;;;;5072963;28;20439;-70
2021/12/11 00:04:18;;;;;;;87.35;37.13;;;1.90;99.90;;;;;;5072483;28;20472;-70
2021/12/11 00:06:52;;;;;;;112.47;41.28;;;1.80;99.90;;;;;;5073183;28;20021;-70
2021/12/11 00:09:23;;;;;;;107.30;40.95;;;1.60;99.90;;;;;;5072916;28;20017;-70
2021/12/11 00:11:53;;;;;;;94.63;36.53;;;1.50;99.90;;;;;;5073171;28;20033;-70
2021/12/11 00:14:21;;;;;;;91.55;36.10;;;1.40;99.90;;;;;;5073193;28;20024;-70
2021/12/11 00:16:47;;;;;;;81.60;35.60;;;1.30;99.90;;;;;;5054276;28;20426;-70
2021/12/11 00:19:20;;;;;;;89.93;35.05;;;1.20;99.90;;;;;;5073048;28;20028;-70
2021/12/11 00:21:47;;;;;;;102.65;37.40;;;1.20;99.90;;;;;;5073124;28;20055;-70
2021/12/11 00:24:24;;;;;;;104.28;38.78;;;1.20;99.90;;;;;;5073637;28;20056;-70
2021/12/11 00:26:55;;;;;;;105.78;39.92;;;1.10;99.90;;;;;;5076720;28;20434;-70
2021/12/11 00:29:25;;;;;;;99.35;39.80;;;1.10;99.90;;;;;;5076087;28;20494;-70
2021/12/11 00:31:56;;;;;;;99.65;38.88;;;1.10;99.90;;;;;;5059044;28;20028;-70
2021/12/11 00:34:23;;;;;;;88.65;35.78;;;1.10;99.90;;;;;;5076781;28;20537;-70
2021/12/11 00:36:56;;;;;;;97.38;37.25;;;1.10;99.90;;;;;;5076345;28;20062;-70
2021/12/11 00:39:23;;;;;;;86.15;34.60;;;1.10;99.90;;;;;;5075920;28;20029;-70
2021/12/11 00:41:54;;;;;;;99.18;36.40;;;1.10;99.90;;;;;;5076617;28;20060;-70
2021/12/11 00:44:36;;;;;;;108.68;41.78;;;1.00;99.90;;;;;;5076336;28;20033;-70
2021/12/11 00:47:07;;;;;;;115.38;39.85;;;1.00;99.90;;;;;;5075857;28;20033;-70
2021/12/11 00:49:33;;;;;;;95.68;36.72;;;1.00;99.90;;;;;;5076186;28;20104;-70
2021/12/11 00:52:00;;;;;;;99.03;36.80;;;1.00;99.90;;;;;;5076126;28;20099;-70
2021/12/11 00:54:25;;;;;;;117.18;41.70;;;1.00;99.90;;;;;;5076418;28;20028;-70
2021/12/11 00:56:51;;;;;;;94.57;36.58;;;1.00;99.90;;;;;;5075721;28;20021;-70
2021/12/11 00:59:19;;;;;;;91.13;36.75;;;1.00;99.90;;;;;;5076006;28;20523;-70
2021/12/11 01:01:51;;;;;;;95.93;36.03;;;0.90;99.90;;;;;;5075820;28;20033;-70
2021/12/11 01:04:20;;;;;;;101.72;37.75;;;1.00;99.90;;;;;;5076043;28;20391;-69
2021/12/11 01:06:49;;;;;;;97.55;37.85;;;1.00;99.90;;;;;;5075732;28;20078;-70
2021/12/11 01:09:23;;;;;;;100.45;38.40;;;1.00;99.90;;;;;;5076151;28;20017;-70
2021/12/11 01:11:51;;;;;;;;;;;1.00;99.90;;;;;;5076305;28;20016;-70
2021/12/11 01:14:34;;;;;;;112.55;41.20;;;1.10;99.90;;;;;;5076063;28;19904;-70
2021/12/11 01:17:11;;;;;;;126.95;45.20;;;1.10;99.90;;;;;;5075333;28;20032;-70
2021/12/11 01:19:40;;;;;;;111.68;40.72;;;1.30;99.90;;;;;;5075960;28;20033;-70
2021/12/11 01:22:31;;;;;;;122.85;42.05;;;1.30;99.90;;;;;;5075889;28;20415;-70
2021/12/11 01:24:58;;;;;;;115.82;40.15;;;1.30;99.90;;;;;;5075072;28;20503;-70
2021/12/11 01:27:25;;;;;;;129.18;42.15;;;1.20;99.90;;;;;;5075339;28;20028;-70
2021/12/11 01:29:56;;;;;;;114.15;41.83;;;1.30;99.90;;;;;;5075467;28;20020;-70
2021/12/11 01:32:27;;;;;;;104.95;39.63;;;1.20;99.90;;;;;;5075740;28;20056;-70
2021/12/11 01:34:54;;;;;;;115.93;42.33;;;1.20;99.90;;;;;;5075667;28;20020;-70
2021/12/11 01:37:20;;;;;;;124.88;43.05;;;1.20;99.90;;;;;;5052375;28;21174;-70
2021/12/11 01:39:51;;;;;;;115.50;42.00;;;1.20;99.90;;;;;;5048117;28;20029;-70
2021/12/11 01:42:21;;;;;;;104.90;39.58;;;1.20;99.90;;;;;;5055371;28;20140;-70
2021/12/11 01:44:48;;;;;;;96.40;36.33;;;1.20;99.90;;;;;;5073044;28;20039;-70
2021/12/11 01:47:18;;;;;;;110.55;42.03;;;1.20;99.90;;;;;;5072929;28;20025;-70
2021/12/11 01:49:47;;;;;;;105.40;38.17;;;1.20;99.90;;;;;;5055030;28;20017;-70
2021/12/11 01:52:37;;;;;;;103.53;37.85;;;1.20;99.90;;;;;;5058574;28;20044;-70
2021/12/11 01:55:09;;;;;;;90.93;37.05;;;1.20;99.90;;;;;;5057064;28;20027;-70
2021/12/11 01:57:35;;;;;;;116.78;41.30;;;1.20;99.90;;;;;;5074905;28;20059;-70
2021/12/11 02:00:15;;;;;;;106.40;39.53;;;1.20;99.90;;;;;;5054859;28;20457;-70
2021/12/11 02:02:44;;;;;;;120.72;42.28;;;1.20;99.90;;;;;;5054824;28;20039;-70
2021/12/11 02:05:12;;;;;;;114.97;43.45;;;1.30;99.90;;;;;;5054232;28;20029;-70
2021/12/11 02:07:42;;;;;;;101.07;39.83;;;1.40;99.90;;;;;;5054596;28;20058;-70
2021/12/11 02:10:38;;;;;;;109.70;39.03;;;1.30;99.90;;;;;;5064836;28;20492;-70
2021/12/11 02:13:06;;;;;;;103.18;38.38;;;1.30;99.90;;;;;;5067261;28;20016;-70
2021/12/11 02:15:37;;;;;;;103.45;38.50;;;1.30;99.90;;;;;;5074116;28;20422;-70
2021/12/11 02:18:13;;;;;;;108.97;42.72;;;1.30;99.90;;;;;;5056575;28;20031;-70
2021/12/11 02:20:54;;;;;;;110.60;39.33;;;1.30;99.90;;;;;;5053207;28;20032;-69
2021/12/11 02:23:20;;;;;;;111.75;40.22;;;1.30;99.90;;;;;;5054756;28;20017;-70
2021/12/11 02:25:49;;;;;;;101.90;40.22;;;1.20;99.90;;;;;;5053856;28;20055;-70
2021/12/11 02:28:40;;;;;;;113.28;38.83;;;1.30;99.90;;;;;;5054469;28;20036;-70
2021/12/11 02:31:27;;;;;;;111.90;40.70;;;1.30;99.90;;;;;;5045759;28;20029;-70
2021/12/11 02:34:09;;;;;;;118.00;40.25;;;1.30;99.90;;;;;;5061690;28;20033;-70
2021/12/11 02:36:44;;;;;;;113.20;38.40;;;1.30;99.90;;;;;;5073548;28;20472;-70
2021/12/11 02:39:30;;;;;;;120.60;40.10;;;1.30;99.90;;;;;;5073530;28;20059;-70
2021/12/11 02:42:07;;;;;;;118.88;41.47;;;1.30;99.90;;;;;;5074134;28;20031;-70
2021/12/11 02:44:41;;;;;;;119.60;41.40;;;1.30;99.90;;;;;;5074035;28;20055;-70
2021/12/11 02:47:15;;;;;;;;;;;1.30;99.90;;;;;;5074283;28;20056;-70
2021/12/11 02:49:51;;;;;;;111.07;39.03;;;1.30;99.90;;;;;;5073932;28;19905;-70
2021/12/11 02:52:26;;;;;;;118.85;40.03;;;1.30;99.90;;;;;;5073195;28;20028;-70
2021/12/11 02:55:16;;;;;;;91.18;36.28;;;1.30;99.90;;;;;;5074091;28;20024;-70
2021/12/11 02:57:47;;;;;;;111.82;38.95;;;1.30;99.90;;;;;;5074262;28;20032;-70
2021/12/11 03:00:22;;;;;;;95.85;36.17;;;1.30;99.90;;;;;;5074325;28;20021;-70
2021/12/11 03:03:00;;;;;;;112.32;39.13;;;1.30;99.90;;;;;;5073255;28;20496;-70
2021/12/11 03:05:36;;;;;;;102.05;38.25;;;1.30;99.90;;;;;;5074251;28;20033;-70
2021/12/11 03:08:05;;;;;;;116.53;39.08;;;1.30;99.90;;;;;;5073604;28;20048;-70
2021/12/11 03:10:33;;;;;;;114.38;41.42;;;1.30;99.90;;;;;;5073788;28;20095;-70
2021/12/11 03:12:59;;;;;;;92.43;37.92;;;1.30;99.90;;;;;;5073082;28;20556;-70
2021/12/11 03:15:25;;;;;;;99.30;37.53;;;1.30;99.90;;;;;;5073509;28;20035;-70
2021/12/11 03:17:51;;;;;;;111.93;41.47;;;1.30;99.90;;;;;;5073503;28;20029;-70
2021/12/11 03:20:20;;;;;;;109.75;36.47;;;1.30;99.90;;;;;;5073684;28;20039;-70
2021/12/11 03:22:46;;;;;;;96.00;36.67;;;1.30;99.90;;;;;;5073280;28;20081;-70
2021/12/11 03:25:17;;;;;;;96.20;35.58;;;1.30;99.90;;;;;;5073349;28;20029;-70
2021/12/11 03:27:43;;;;;;;109.30;36.63;;;1.30;99.90;;;;;;5073383;28;20078;-70
2021/12/11 03:30:13;;;;;;;108.72;38.40;;;1.30;99.90;;;;;;5073286;28;20028;-70
2021/12/11 03:32:39;;;;;;;101.63;37.17;;;1.30;99.90;;;;;;5073262;28;20027;-70
2021/12/11 03:35:07;;;;;;;101.57;35.60;;;1.30;99.90;;;;;;5072841;28;20054;-69
2021/12/11 03:37:33;;;;;;;115.72;39.45;;;1.20;99.90;;;;;;5072856;28;20518;-70
2021/12/11 03:39:59;;;;;;;102.28;37.85;;;1.30;99.90;;;;;;5073475;28;20111;-70
2021/12/11 03:42:30;;;;;;;112.75;41.30;;;1.30;99.90;;;;;;5073484;28;20055;-70
2021/12/11 03:44:58;;;;;;;107.57;39.78;;;1.30;99.90;;;;;;5072997;28;20059;-69
2021/12/11 03:47:29;;;;;;;104.53;38.13;;;1.30;99.90;;;;;;5073180;28;20020;-70
2021/12/11 03:49:55;;;;;;;106.28;37.67;;;1.30;99.90;;;;;;5073705;28;20044;-70
2021/12/11 03:52:21;;;;;;;95.35;35.63;;;1.30;99.90;;;;;;5073333;28;20472;-70
2021/12/11 03:54:50;;;;;;;118.80;41.08;;;1.30;99.90;;;;;;5073041;28;20017;-70
2021/12/11 03:57:18;;;;;;;108.65;39.35;;;1.30;99.90;;;;;;5054965;28;20029;-70
2021/12/11 03:59:47;;;;;;;111.72;38.30;;;1.30;99.90;;;;;;5074234;28;20029;-70
2021/12/11 04:02:15;;;;;;;98.93;37.35;;;1.30;99.90;;;;;;5077135;28;20020;-70
2021/12/11 04:04:51;;;;;;;118.18;39.97;;;1.30;99.90;;;;;;5059115;28;20047;-70
2021/12/11 04:07:21;;;;;;;113.45;42.85;;;1.30;99.90;;;;;;5072556;28;20547;-70
2021/12/11 04:09:48;;;;;;;124.88;41.17;;;1.30;99.90;;;;;;5073802;28;20025;-70
2021/12/11 04:12:14;;;;;;;117.88;39.38;;;1.30;99.90;;;;;;5072934;28;20020;-70
2021/12/11 04:14:43;;;;;;;109.20;40.65;;;1.20;99.90;;;;;;5058949;28;20024;-70
2021/12/11 04:17:11;;;;;;;108.47;39.22;;;1.20;99.90;;;;;;5074754;28;20033;-70
2021/12/11 04:19:38;;;;;;;113.57;40.08;;;1.20;99.90;;;;;;5077135;28;20024;-70
2021/12/11 04:22:05;;;;;;;129.52;41.70;;;1.20;99.90;;;;;;5055394;28;20025;-70
2021/12/11 04:24:32;;;;;;;122.90;42.80;;;1.20;99.90;;;;;;5074811;28;20460;-70
2021/12/11 04:27:00;;;;;;;114.05;41.47;;;1.10;99.90;;;;;;5075853;28;20111;-70
2021/12/11 04:29:28;;;;;;;139.85;43.53;;;1.20;99.90;;;;;;5076892;28;20023;-70
2021/12/11 04:32:00;;;;;;;120.63;42.47;;;1.10;99.90;;;;;;5076540;28;20021;-70
2021/12/11 04:34:26;;;;;;;128.80;43.78;;;1.10;99.90;;;;;;5076812;28;20025;-70
2021/12/11 04:36:59;;;;;;;127.60;43.75;;;1.10;99.90;;;;;;5073865;28;20472;-70
2021/12/11 04:39:26;;;;;;;136.77;45.28;;;1.00;99.90;;;;;;5056162;28;20032;-70
2021/12/11 04:42:02;;;;;;;121.05;43.58;;;1.00;99.90;;;;;;5056354;28;20388;-70
2021/12/11 04:44:36;;;;;;;139.57;41.85;;;1.00;99.90;;;;;;5056654;28;20466;-70
2021/12/11 04:47:07;;;;;;;133.95;40.63;;;1.00;99.90;;;;;;5056427;28;20025;-70
2021/12/11 04:49:36;;;;;;;121.47;41.88;;;1.00;99.90;;;;;;5055880;28;20036;-70
2021/12/11 04:52:09;;;;;;;105.50;38.38;;;0.90;99.90;;;;;;5056216;28;20074;-70
2021/12/11 04:54:54;;;;;;;113.03;39.88;;;0.80;99.90;;;;;;5058481;28;20036;-70
2021/12/11 05:00:20;;;;;;;140.70;43.00;;;0.80;99.90;;;;;;5076088;28;20082;-69
2021/12/11 05:03:08;;;;;;;129.80;43.00;;;0.80;99.90;;;;;;5058088;28;20025;-70
2021/12/11 05:11:03;;;;;;;146.80;47.58;;;0.90;99.90;;;;;;5056067;28;20048;-70
2021/12/11 05:13:30;;;;;;;143.43;42.58;;;1.00;99.90;;;;;;5055287;28;20021;-70
2021/12/11 05:16:00;;;;;;;148.30;45.03;;;0.90;99.90;;;;;;5055737;28;20021;-70
2021/12/11 05:18:28;;;;;;;133.18;44.00;;;0.90;99.90;;;;;;5055722;28;20039;-70
2021/12/11 05:20:59;;;;;;;140.13;44.45;;;0.90;99.90;;;;;;5055911;28;20376;-70
2021/12/11 05:23:25;;;;;;;142.82;47.03;;;0.90;99.90;;;;;;5055804;28;20060;-70
2021/12/11 05:25:51;;;;;;;148.77;43.53;;;0.90;99.90;;;;;;5054991;28;20056;-70
2021/12/11 05:28:18;;;;;;;159.55;47.17;;;0.90;99.90;;;;;;5055624;28;20440;-70
2021/12/11 05:30:48;;;;;;;142.02;44.70;;;0.80;99.90;;;;;;5055487;28;20520;-70
2021/12/11 05:33:15;;;;;;;170.30;46.83;;;0.90;99.90;;;;;;5037483;28;20025;-70
2021/12/11 05:35:41;;;;;;;145.07;45.78;;;0.90;99.90;;;;;;5055316;28;20514;-70
2021/12/11 05:38:09;;;;;;;138.65;45.70;;;0.90;99.90;;;;;;5071600;23;20040;-67
2021/12/11 05:40:39;;;;;;;158.63;44.95;;;1.00;99.90;;;;;;5095025;28;20028;-67
2021/12/11 05:43:05;;;;;;;150.05;47.45;;;1.00;99.90;;;;;;5095444;28;20575;-67
2021/12/11 05:45:32;;;;;;;151.35;46.00;;;1.10;99.90;;;;;;5095696;28;20036;-67
2021/12/11 05:47:58;;;;;;;149.88;49.00;;;1.10;99.90;;;;;;5095416;28;20081;-67
2021/12/11 05:50:32;;;;;;;152.05;45.85;;;1.10;99.90;;;;;;5095221;28;20024;-67
2021/12/11 05:52:58;;;;;;;143.18;45.17;;;1.10;99.90;;;;;;5095262;28;20016;-67
2021/12/11 05:55:25;;;;;;;142.35;45.67;;;1.10;99.90;;;;;;5095243;28;20052;-67
2021/12/11 05:57:54;;;;;;;152.10;46.38;;;1.10;99.90;;;;;;5095579;28;20020;-67
2021/12/11 06:00:31;;;;;;;152.15;45.90;;;1.10;99.90;;;;;;5095367;28;20108;-67
2021/12/11 06:02:58;;;;;;;147.48;47.95;;;1.10;99.90;;;;;;5095099;28;20028;-67
2021/12/11 06:05:24;;;;;;;168.63;49.05;;;1.10;99.90;;;;;;5094484;28;20032;-67
2021/12/11 06:07:52;;;;;;;145.25;45.33;;;1.10;99.90;;;;;;5094846;28;20024;-67
2021/12/11 06:10:19;;;;;;;156.65;45.33;;;1.10;99.90;;;;;;5095138;28;20070;-67
2021/12/11 06:12:47;;;;;;;134.57;45.63;;;1.10;99.90;;;;;;5076833;28;20020;-67
2021/12/11 06:15:13;;;;;;;121.57;44.05;;;1.10;99.90;;;;;;5094297;28;20020;-67
2021/12/11 06:17:42;;;;;;;148.60;45.25;;;1.10;99.90;;;;;;5094756;28;20497;-67
2021/12/11 06:20:11;;;;;;;145.30;47.97;;;1.10;99.90;;;;;;5095172;28;20129;-67
2021/12/11 06:22:37;;;;;;;116.63;41.10;;;1.10;99.90;;;;;;5094369;28;20085;-67
2021/12/11 06:25:07;;;;;;;151.20;48.00;;;1.10;99.90;;;;;;5094660;28;20047;-67
2021/12/11 06:27:33;;;;;;;134.43;44.47;;;1.20;99.90;;;;;;5094337;28;20114;-67
2021/12/11 06:29:59;;;;;;;149.68;44.75;;;1.10;99.90;;;;;;5094042;28;20391;-67
2021/12/11 06:32:25;;;;;;;153.23;47.55;;;1.20;99.90;;;;;;5095067;28;20027;-67
2021/12/11 06:34:55;;;;;;;146.55;48.22;;;1.20;99.90;;;;;;5094588;28;20096;-67
2021/12/11 06:37:22;;;;;;;152.85;46.53;;;1.20;99.90;;;;;;5094519;28;20056;-67
2021/12/11 06:39:49;;;;;;;120.40;41.42;;;1.20;99.90;;;;;;5094359;28;20107;-67
2021/12/11 06:42:17;;;;;;;126.32;43.45;;;1.30;99.90;;;;;;5075631;28;20036;-67
2021/12/11 06:44:42;;;;;;;136.23;45.35;;;1.20;99.90;;;;;;5094582;28;20157;-67
2021/12/11 06:47:10;;;;;;;133.38;43.08;;;1.20;99.90;;;;;;5094173;28;20122;-67
2021/12/11 06:49:40;;;;;;;138.98;46.25;;;1.20;99.90;;;;;;5093608;28;20016;-67
2021/12/11 06:52:11;;;;;;;132.07;42.10;;;1.20;99.90;;;;;;5094089;28;20024;-67
2021/12/11 06:54:37;;;;;;;124.78;43.20;;;1.20;99.90;;;;;;5092021;28;20028;-67
2021/12/11 06:57:04;;;;;;;119.35;41.22;;;1.20;99.90;;;;;;5093617;28;20031;-67
2021/12/11 06:59:30;;;;;;;134.98;42.60;;;1.20;99.90;;;;;;5089353;28;20050;-67
2021/12/11 07:01:55;;;;;;;129.77;43.72;;;1.20;99.90;;;;;;5093978;28;20020;-67
2021/12/11 07:04:21;;;;;;;156.95;44.30;;;1.20;99.90;;;;;;5093956;28;20036;-67
2021/12/11 07:06:51;;;;;;;129.35;43.70;;;1.30;99.90;;;;;;5090289;28;20067;-67
2021/12/11 07:09:18;;;;;;;146.77;45.50;;;1.20;99.90;;;;;;5073039;28;20048;-67
2021/12/11 07:11:45;;;;;;;148.35;48.55;;;1.20;99.90;;;;;;5087009;28;20414;-67
2021/12/11 07:14:13;;;;;;;157.18;48.10;;;1.20;99.90;;;;;;5094053;28;20524;-67
2021/12/11 07:16:40;;;;;;;179.80;54.30;;;1.20;99.90;;;;;;5089566;28;20161;-67
2021/12/11 07:19:08;;;;;;;163.57;47.72;;;1.20;99.90;;;;;;5058306;28;20028;-67
2021/12/11 07:21:34;;;;;;;175.07;51.53;;;1.20;99.90;;;;;;5088164;28;20406;-67
2021/12/11 07:24:00;;;;;;;162.75;50.03;;;1.30;99.90;;;;;;5073402;28;20095;-67
2021/12/11 07:26:31;;;;;;;148.32;48.58;;;1.30;99.90;;;;;;5073655;28;20033;-67
2021/12/11 07:29:02;;;;;;;149.77;46.08;;;1.40;99.90;;;;;;5073320;28;20028;-67
2021/12/11 07:31:28;;;;;;;166.30;50.72;;;1.50;99.90;;;;;;5073209;28;20024;-67
2021/12/11 07:33:54;;;;;;;180.95;51.72;;;1.50;99.90;;;;;;5073278;28;20016;-68
2021/12/11 07:36:21;;;;;;;157.15;48.63;;;1.60;99.90;;;;;;5093191;28;20456;-67
2021/12/11 07:38:47;;;;;;;166.90;48.30;;;1.60;99.90;;;;;;5093230;28;20032;-67
2021/12/11 07:41:13;;;;;;;165.38;51.05;;;1.60;99.90;;;;;;5093333;28;20039;-67
2021/12/11 07:43:42;;;;;;;159.10;47.22;;;1.60;99.90;;;;;;5086349;28;20488;-67
2021/12/11 07:46:13;;;;;;;164.02;50.38;;;1.60;99.90;;;;;;5091832;28;20020;-67
2021/12/11 07:48:40;;;;;;;160.98;49.15;;;1.70;99.90;;;;;;5080775;28;20081;-67
2021/12/11 07:51:07;;;;;;;149.85;48.55;;;1.70;99.90;;;;;;5073075;28;20024;-67
2021/12/11 07:53:32;;;;;;;168.15;50.15;;;1.70;99.90;;;;;;5073115;28;20474;-67
2021/12/11 07:55:58;;;;;;;163.82;49.20;;;1.80;99.90;;;;;;5072529;28;20094;-67
2021/12/11 07:58:24;;;;;;;173.57;52.88;;;1.70;99.90;;;;;;5072995;28;20063;-66
2021/12/11 08:00:50;;;;;;;173.93;49.60;;;1.80;99.90;;;;;;5073054;28;20025;-67
2021/12/11 08:03:18;;;;;;;168.52;51.53;;;1.80;99.90;;;;;;5073552;28;20464;-67
2021/12/11 08:05:46;;;;;;;154.07;47.55;;;1.80;99.90;;;;;;5089479;28;20028;-67
2021/12/11 08:08:12;;;;;;;154.73;46.47;;;1.90;99.90;;;;;;5078485;28;20040;-67
2021/12/11 08:10:40;;;;;;;159.80;50.50;;;1.90;99.90;;;;;;5072382;28;20016;-67
2021/12/11 08:13:08;;;;;;;140.43;46.03;;;1.90;99.90;;;;;;5085247;28;20030;-68
2021/12/11 08:15:35;;;;;;;147.70;46.22;;;1.90;99.90;;;;;;5093049;28;20034;-67
2021/12/11 08:18:01;;;;;;;164.82;50.25;;;2.00;99.90;;;;;;5093447;28;20059;-68
2021/12/11 08:20:31;;;;;;;179.30;51.05;;;2.00;99.90;;;;;;5094125;28;20028;-68
2021/12/11 08:22:57;;;;;;;156.27;46.38;;;2.00;99.90;;;;;;5093321;28;20024;-68
2021/12/11 08:25:26;;;;;;;167.73;49.20;;;2.10;99.90;;;;;;5070936;28;20074;-67
2021/12/11 08:27:53;;;;;;;139.18;45.53;;;2.10;99.90;;;;;;5072845;28;20029;-67
2021/12/11 08:30:20;;;;;;;166.60;46.75;;;2.10;99.90;;;;;;5072417;28;20017;-67
2021/12/11 08:32:45;;;;;;;146.75;44.95;;;2.10;99.90;;;;;;5054600;28;20507;-67
2021/12/11 08:35:13;;;;;;;138.25;45.20;;;2.10;99.90;;;;;;5072976;28;20063;-67
2021/12/11 08:37:41;;;;;;;138.43;42.80;;;2.10;99.90;;;;;;5073995;28;20044;-67
2021/12/11 08:40:10;;;;;;;148.93;45.38;;;2.10;99.90;;;;;;5072938;28;20036;-67
2021/12/11 08:42:36;;;;;;;169.50;54.10;;;2.10;99.90;;;;;;5079928;28;20028;-67
2021/12/11 08:45:06;;;;;;;171.98;57.00;;;2.20;99.90;;;;;;5092840;28;20037;-67
2021/12/11 08:47:34;;;;;;;148.38;48.00;;;2.20;99.90;;;;;;5096674;28;20039;-67
2021/12/11 08:50:00;;;;;;;134.75;41.70;;;2.20;99.90;;;;;;5096818;28;20031;-67
2021/12/11 08:52:33;;;;;;;118.57;39.13;;;2.20;99.90;;;;;;5096504;28;20022;-67
2021/12/11 08:55:00;;;;;;;135.75;43.80;;;2.10;99.90;;;;;;5076502;28;20021;-67
2021/12/11 08:57:32;;;;;;;125.90;42.10;;;2.10;99.90;;;;;;5076060;28;20056;-67
2021/12/11 09:00:11;;;;;;;122.32;38.97;;;2.00;99.90;;;;;;5075306;28;20064;-67
2021/12/11 09:02:46;;;;;;;113.97;39.70;;;1.90;99.90;;;;;;5076369;28;20046;-67
2021/12/11 09:05:21;;;;;;;115.55;40.65;;;1.90;99.90;;;;;;5076296;28;20028;-67
2021/12/11 09:07:52;;;;;;;103.55;36.50;;;2.10;99.90;;;;;;5076079;28;20029;-67
2021/12/11 09:10:44;;;;;;;92.30;34.00;;;2.10;99.90;;;;;;5075906;28;20468;-67
2021/12/11 09:13:15;;;;;;;93.05;32.58;;;2.20;99.90;;;;;;5073397;28;20044;-67
2021/12/11 09:15:53;;;;;;;104.80;36.25;;;2.30;99.90;;;;;;5075563;28;20036;-67
2021/12/11 09:18:29;;;;;;;129.20;38.55;;;2.40;99.90;;;;;;5081405;28;20028;-67
2021/12/11 09:21:08;;;;;;;114.80;37.47;;;2.40;99.90;;;;;;5096233;28;20028;-67
2021/12/11 09:23:43;;;;;;;115.10;38.90;;;2.40;99.90;;;;;;5079485;28;20027;-67
2021/12/11 09:26:15;;;;;;;105.88;35.58;;;2.40;99.90;;;;;;5076152;28;20021;-67
2021/12/11 09:28:50;;;;;;;106.55;35.47;;;2.50;99.90;;;;;;5075623;28;20200;-67
2021/12/11 09:31:28;;;;;;;92.13;34.00;;;2.50;99.90;;;;;;5077850;28;20123;-67
2021/12/11 09:34:03;;;;;;;113.53;38.70;;;2.50;99.90;;;;;;5073758;28;20017;-67
2021/12/11 09:36:33;;;;;;;116.72;36.40;;;2.50;99.90;;;;;;5074196;28;20067;-68
2021/12/11 09:39:13;;;;;;;106.18;36.85;;;2.50;99.90;;;;;;5092624;28;20396;-67
2021/12/11 09:41:38;;;;;;;99.93;36.42;;;2.60;99.90;;;;;;5095206;28;20587;-67
2021/12/11 09:44:23;;;;;;;97.45;36.13;;;2.70;99.90;;;;;;5093581;28;20107;-67
2021/12/11 09:47:00;;;;;;;105.57;37.47;;;2.80;99.90;;;;;;5095763;28;20027;-67
2021/12/11 09:49:36;;;;;;;99.07;36.13;;;2.80;99.90;;;;;;5090959;28;20024;-67
2021/12/11 09:52:18;;;;;;;103.38;37.72;;;2.80;99.90;;;;;;5086089;28;20120;-67
2021/12/11 09:54:48;;;;;;;102.93;35.20;;;2.80;99.90;;;;;;5085153;28;20073;-67
2021/12/11 09:57:17;;;;;;;95.90;35.25;;;2.80;99.90;;;;;;5094047;28;20043;-67
2021/12/11 09:59:45;;;;;;;89.00;34.63;;;2.80;99.90;;;;;;5095106;28;20024;-67
2021/12/11 10:02:16;;;;;;;102.68;34.30;;;2.90;99.90;;;;;;5095155;28;20035;-67
2021/12/11 10:04:58;;;;;;;86.82;33.58;;;2.90;99.90;;;;;;5082991;28;20028;-67
2021/12/11 10:07:35;;;;;;;105.55;34.83;;;3.00;99.90;;;;;;5074074;28;20503;-67
2021/12/11 10:10:23;;;;;;;76.57;29.63;;;3.10;99.90;;;;;;5074909;28;20479;-67
2021/12/11 10:12:53;;;;;;;81.78;28.05;;;3.20;99.90;;;;;;5075042;28;20035;-68
2021/12/11 10:15:41;;;;;;;66.25;24.73;;;3.30;99.90;;;;;;5077320;28;20013;-67
2021/12/11 10:18:12;;;;;;;65.32;25.85;;;3.40;99.90;;;;;;5074822;28;20017;-67
2021/12/11 10:20:40;;;;;;;55.38;22.00;;;3.50;99.90;;;;;;5074248;28;20033;-67
2021/12/11 10:23:11;;;;;;;62.40;22.88;;;3.70;99.90;;;;;;5074485;28;20107;-67
2021/12/11 10:25:39;;;;;;;57.10;20.95;;;3.70;99.90;;;;;;5074800;28;20475;-68
2021/12/11 10:28:11;;;;;;;50.33;19.92;;;3.80;99.90;;;;;;5073756;28;20388;-67
2021/12/11 10:30:46;;;;;;;42.53;20.23;;;4.00;99.90;;;;;;5074657;28;20123;-68
2021/12/11 10:33:14;;;;;;;54.15;22.65;;;4.00;99.90;;;;;;5074873;28;20047;-68
2021/12/11 10:35:42;;;;;;;46.42;18.35;;;4.10;99.90;;;;;;5074260;28;20453;-68
2021/12/11 10:38:10;;;;;;;53.10;21.08;;;4.40;99.90;;;;;;5073416;28;20039;-67
2021/12/11 10:40:41;;;;;;;45.03;19.55;;;4.50;99.90;;;;;;5074161;28;20028;-68
2021/12/11 10:43:19;;;;;;;41.05;20.20;;;4.70;99.90;;;;;;5072885;28;20028;-68
2021/12/11 10:45:46;;;;;;;42.88;19.23;;;4.90;99.90;;;;;;5074276;28;20032;-68
2021/12/11 10:48:16;;;;;;;44.42;17.48;;;4.90;99.90;;;;;;5073487;28;20021;-67
2021/12/11 10:50:42;;;;;;;38.53;18.85;;;4.80;99.90;;;;;;5074281;28;20119;-68
2021/12/11 10:53:13;;;;;;;42.20;19.52;;;4.60;99.90;;;;;;5074176;28;20052;-67
2021/12/11 10:55:40;;;;;;;36.75;17.55;;;4.60;99.90;;;;;;5074110;28;20066;-67
2021/12/11 10:58:10;;;;;;;35.50;17.00;;;4.70;99.90;;;;;;5073396;28;20032;-67
2021/12/11 11:00:37;;;;;;;33.40;16.42;;;4.70;99.90;;;;;;5073812;28;20025;-68
2021/12/11 11:03:06;;;;;;;36.42;16.00;;;4.60;99.90;;;;;;5073630;28;20115;-68
2021/12/11 11:05:32;;;;;;;30.63;16.70;;;4.60;99.90;;;;;;5073694;28;20032;-68
2021/12/11 11:07:58;;;;;;;43.17;17.20;;;4.50;99.90;;;;;;5072877;28;20503;-67
2021/12/11 11:10:30;;;;;;;32.78;16.63;;;4.60;99.90;;;;;;5073615;28;20021;-68
2021/12/11 11:13:00;;;;;;;33.67;16.83;;;4.60;99.90;;;;;;5074162;28;20016;-68
2021/12/11 11:15:27;;;;;;;40.70;17.25;;;4.60;99.90;;;;;;5072979;28;20024;-67
2021/12/11 11:17:53;;;;;;;31.10;18.13;;;4.60;99.90;;;;;;5073430;28;20036;-68
2021/12/11 11:20:26;;;;;;;43.25;19.50;;;4.60;99.90;;;;;;5073478;28;20052;-68
2021/12/11 11:22:52;;;;;;;36.55;17.33;;;4.70;99.90;;;;;;5073774;28;20032;-68
2021/12/11 11:25:28;;;;;;;41.33;19.30;;;4.80;99.90;;;;;;5073453;28;20103;-68
2021/12/11 11:27:59;;;;;;;39.65;18.63;;;4.90;99.90;;;;;;5073559;28;20090;-68
2021/12/11 11:30:32;;;;;;;36.45;18.10;;;5.00;99.90;;;;;;5072994;28;20052;-68
2021/12/11 11:32:59;;;;;;;37.45;19.10;;;5.00;99.90;;;;;;5073630;28;20035;-68
2021/12/11 11:35:28;;;;;;;36.17;17.98;;;5.00;99.90;;;;;;5073310;28;20024;-68
2021/12/11 11:37:57;;;;;;;41.13;18.13;;;4.90;99.90;;;;;;5095887;23;20455;-71
2021/12/11 11:40:28;;;;;;;36.97;18.55;;;4.80;99.90;;;;;;5093068;28;20132;-71
2021/12/11 11:42:59;;;;;;;44.10;19.23;;;4.80;99.90;;;;;;5093730;28;20048;-71
2021/12/11 11:45:26;;;;;;;38.22;18.88;;;4.90;99.90;;;;;;5075047;28;20405;-72
2021/12/11 11:47:54;;;;;;;33.75;18.67;;;4.90;99.90;;;;;;5093212;28;20463;-72
2021/12/11 11:50:23;;;;;;;33.60;17.38;;;4.90;99.90;;;;;;5091383;28;20436;-71
2021/12/11 11:52:49;;;;;;;35.40;18.70;;;4.90;99.90;;;;;;5087489;28;20447;-72
2021/12/11 11:55:26;;;;;;;37.50;17.70;;;5.00;99.90;;;;;;5071791;28;20111;-72
2021/12/11 11:57:53;;;;;;;35.72;19.15;;;5.10;99.90;;;;;;5072810;28;20025;-72
2021/12/11 12:00:24;;;;;;;38.03;19.08;;;5.10;99.90;;;;;;5073188;28;20062;-72
2021/12/11 12:02:50;;;;;;;38.78;19.08;;;5.10;99.90;;;;;;5083982;28;20386;-72
2021/12/11 12:05:16;;;;;;;35.20;17.13;;;5.10;99.90;;;;;;5075333;28;20399;-72
2021/12/11 12:07:42;;;;;;;33.97;17.27;;;5.00;99.90;;;;;;5091110;28;20016;-71
2021/12/11 12:10:14;;;;;;;26.77;15.77;;;4.90;99.90;;;;;;5072889;28;20052;-72
2021/12/11 12:12:40;;;;;;;34.20;18.13;;;4.80;99.90;;;;;;5054433;28;20025;-72
2021/12/11 12:15:10;;;;;;;40.22;18.33;;;4.80;99.90;;;;;;5090112;28;20024;-71
2021/12/11 12:17:38;;;;;;;39.88;18.60;;;4.80;99.90;;;;;;5093085;28;20035;-72
2021/12/11 12:20:08;;;;;;;34.60;16.60;;;4.80;99.90;;;;;;5093528;28;20031;-72
2021/12/11 12:22:34;;;;;;;44.90;19.17;;;4.90;99.90;;;;;;5078695;28;20043;-72
2021/12/11 12:25:01;;;;;;;37.78;18.45;;;4.90;99.90;;;;;;5076236;28;20032;-72
2021/12/11 12:27:30;;;;;;;41.50;18.98;;;5.10;99.90;;;;;;5080974;28;20108;-72
2021/12/11 12:29:58;;;;;;;41.38;18.88;;;5.20;99.90;;;;;;5076624;28;20021;-72
2021/12/11 12:32:30;;;;;;;35.00;19.17;;;5.30;99.90;;;;;;5092184;28;20479;-72
2021/12/11 12:34:59;;;;;;;33.65;19.30;;;5.40;99.90;;;;;;5097018;28;20077;-72
2021/12/11 12:37:25;;;;;;;28.67;17.35;;;5.40;99.90;;;;;;5078917;28;20038;-72
2021/12/11 12:39:55;;;;;;;37.70;18.20;;;5.50;99.90;;;;;;5076332;28;20458;-72
2021/12/11 12:42:30;;;;;;;30.27;16.75;;;5.60;99.90;;;;;;5078752;28;20525;-72
2021/12/11 12:45:04;;;;;;;36.35;15.50;;;5.60;99.90;;;;;;5076977;28;20052;-72
2021/12/11 12:47:35;;;;;;;31.25;15.13;;;5.60;99.90;;;;;;5085967;28;20097;-72
2021/12/11 12:50:10;;;;;;;28.77;15.20;;;5.60;99.90;;;;;;5096509;28;20131;-72
2021/12/11 12:52:42;;;;;;;21.98;12.07;;;5.90;99.90;;;;;;5096685;28;20065;-72
2021/12/11 12:55:16;;;;;;;32.55;14.55;;;5.70;99.90;;;;;;5096810;28;20486;-72